sensor_id;sensor_type;location;lat;lon;timestamp;temperature;humidity
23495;DHT22;26107;50.832;2.950;2023-02-01T00:09:21;7.50;99.90
23495;DHT22;26107;50.832;2.950;2023-02-01T00:24:21;7.60;99.90
23495;DHT22;26107;50.832;2.950;2023-02-01T00:39:22;7.50;99.90
23495;DHT22;26107;50.832;2.950;2023-02-01T00:54:23;7.30;99.90
23495;DHT22;26107;50.832;2.950;2023-02-01T01:09:23;7.00;99.90
23495;DHT22;26107;50.832;2.950;2023-02-01T01:24:24;7.10;99.90
23495;DHT22;26107;50.832;2.950;2023-02-01T01:39:25;6.80;99.90
23495;DHT22;26107;50.832;2.950;2023-02-01T01:54:30;6.70;99.90
23495;DHT22;26107;50.832;2.950;2023-02-01T02:09:32;6.90;99.90
23495;DHT22;26107;50.832;2.950;2023-02-01T02:39:53;6.60;99.90
23495;DHT22;26107;50.832;2.950;2023-02-01T02:54:56;6.30;99.90
23495;DHT22;26107;50.832;2.950;2023-02-01T03:09:59;6.20;99.90
23495;DHT22;26107;50.832;2.950;2023-02-01T03:25:10;6.00;99.90
23495;DHT22;26107;50.832;2.950;2023-02-01T03:40:13;6.00;99.90
23495;DHT22;26107;50.832;2.950;2023-02-01T03:55:17;6.00;99.90
23495;DHT22;26107;50.832;2.950;2023-02-01T04:10:20;5.80;99.90
23495;DHT22;26107;50.832;2.950;2023-02-01T04:25:21;5.90;99.90
23495;DHT22;26107;50.832;2.950;2023-02-01T04:40:21;5.70;99.90
23495;DHT22;26107;50.832;2.950;2023-02-01T04:55:22;5.70;99.90
23495;DHT22;26107;50.832;2.950;2023-02-01T05:10:22;5.80;99.90
23495;DHT22;26107;50.832;2.950;2023-02-01T05:25:23;5.50;99.90
23495;DHT22;26107;50.832;2.950;2023-02-01T05:40:24;5.60;99.90
23495;DHT22;26107;50.832;2.950;2023-02-01T05:55:24;5.60;99.90
23495;DHT22;26107;50.832;2.950;2023-02-01T06:10:25;5.40;99.90
23495;DHT22;26107;50.832;2.950;2023-02-01T06:25:25;5.40;99.90
23495;DHT22;26107;50.832;2.950;2023-02-01T06:40:26;5.60;99.90
23495;DHT22;26107;50.832;2.950;2023-02-01T06:55:26;5.60;99.90
23495;DHT22;26107;50.832;2.950;2023-02-01T07:10:27;5.40;99.90
23495;DHT22;26107;50.832;2.950;2023-02-01T07:25:27;5.60;99.90
23495;DHT22;26107;50.832;2.950;2023-02-01T07:40:28;5.70;99.90
23495;DHT22;26107;50.832;2.950;2023-02-01T07:55:30;5.80;99.90
23495;DHT22;26107;50.832;2.950;2023-02-01T08:10:31;5.80;99.90
23495;DHT22;26107;50.832;2.950;2023-02-01T08:25:31;6.10;99.90
23495;DHT22;26107;50.832;2.950;2023-02-01T08:40:33;6.40;99.90
23495;DHT22;26107;50.832;2.950;2023-02-01T08:55:33;6.40;99.90
23495;DHT22;26107;50.832;2.950;2023-02-01T09:10:35;6.60;99.90
23495;DHT22;26107;50.832;2.950;2023-02-01T09:25:39;6.80;99.90
23495;DHT22;26107;50.832;2.950;2023-02-01T09:40:43;7.00;99.90
23495;DHT22;26107;50.832;2.950;2023-02-01T09:55:49;7.20;99.90
23495;DHT22;26107;50.832;2.950;2023-02-01T10:10:50;7.80;99.90
23495;DHT22;26107;50.832;2.950;2023-02-01T10:26:04;8.20;99.90
23495;DHT22;26107;50.832;2.950;2023-02-01T10:41:21;8.30;99.90
23495;DHT22;26107;50.832;2.950;2023-02-01T10:56:25;8.30;99.90
23495;DHT22;26107;50.832;2.950;2023-02-01T11:11:27;8.40;99.90
23495;DHT22;26107;50.832;2.950;2023-02-01T11:26:28;8.90;99.90
23495;DHT22;26107;50.832;2.950;2023-02-01T11:41:28;9.00;99.90
23495;DHT22;26107;50.832;2.950;2023-02-01T11:56:56;9.40;99.90
23495;DHT22;26107;50.832;2.950;2023-02-01T12:12:11;9.60;99.90
23495;DHT22;26107;50.832;2.950;2023-02-01T12:42:26;9.90;99.90
23495;DHT22;26107;50.832;2.950;2023-02-01T12:57:41;9.90;99.90
23495;DHT22;26107;50.832;2.950;2023-02-01T13:12:51;10.00;99.90
23495;DHT22;26107;50.832;2.950;2023-02-01T13:27:55;9.60;99.90
23495;DHT22;26107;50.832;2.950;2023-02-01T13:43:00;9.70;99.90
23495;DHT22;26107;50.832;2.950;2023-02-01T13:58:06;10.20;99.90
23495;DHT22;26107;50.832;2.950;2023-02-01T14:13:38;10.30;99.90
23495;DHT22;26107;50.832;2.950;2023-02-01T14:59:13;9.90;99.90
23495;DHT22;26107;50.832;2.950;2023-02-01T15:14:16;9.60;99.90
23495;DHT22;26107;50.832;2.950;2023-02-01T15:29:17;9.50;99.90
23495;DHT22;26107;50.832;2.950;2023-02-01T15:44:34;9.30;99.90
23495;DHT22;26107;50.832;2.950;2023-02-01T15:59:43;9.00;99.90
23495;DHT22;26107;50.832;2.950;2023-02-01T16:14:44;8.80;99.90
23495;DHT22;26107;50.832;2.950;2023-02-01T16:29:45;8.60;99.90
23495;DHT22;26107;50.832;2.950;2023-02-01T16:44:45;8.50;99.90
23495;DHT22;26107;50.832;2.950;2023-02-01T16:59:46;8.50;99.90
23495;DHT22;26107;50.832;2.950;2023-02-01T17:14:47;8.50;99.90
23495;DHT22;26107;50.832;2.950;2023-02-01T17:29:47;8.50;99.90
23495;DHT22;26107;50.832;2.950;2023-02-01T17:44:54;8.50;99.90
23495;DHT22;26107;50.832;2.950;2023-02-01T17:59:55;8.50;99.90
23495;DHT22;26107;50.832;2.950;2023-02-01T18:14:56;8.40;99.90
23495;DHT22;26107;50.832;2.950;2023-02-01T18:29:57;8.40;99.90
23495;DHT22;26107;50.832;2.950;2023-02-01T18:44:58;8.40;99.90
23495;DHT22;26107;50.832;2.950;2023-02-01T19:00:00;8.50;99.90
23495;DHT22;26107;50.832;2.950;2023-02-01T19:15:02;8.50;99.90
23495;DHT22;26107;50.832;2.950;2023-02-01T19:30:03;8.60;99.90
23495;DHT22;26107;50.832;2.950;2023-02-01T19:45:07;8.60;99.90
23495;DHT22;26107;50.832;2.950;2023-02-01T20:00:10;8.60;99.90
23495;DHT22;26107;50.832;2.950;2023-02-01T20:15:12;8.80;99.90
23495;DHT22;26107;50.832;2.950;2023-02-01T20:30:14;8.70;99.90
23495;DHT22;26107;50.832;2.950;2023-02-01T20:45:19;8.60;99.90
23495;DHT22;26107;50.832;2.950;2023-02-01T21:00:20;8.50;99.90
23495;DHT22;26107;50.832;2.950;2023-02-01T21:15:23;8.50;99.90
23495;DHT22;26107;50.832;2.950;2023-02-01T21:30:25;8.50;99.90
23495;DHT22;26107;50.832;2.950;2023-02-01T21:45:26;8.50;99.90
23495;DHT22;26107;50.832;2.950;2023-02-01T22:00:27;8.40;99.90
23495;DHT22;26107;50.832;2.950;2023-02-01T22:15:28;8.30;99.90
23495;DHT22;26107;50.832;2.950;2023-02-01T22:30:29;8.30;99.90
23495;DHT22;26107;50.832;2.950;2023-02-01T22:45:31;8.20;99.90
23495;DHT22;26107;50.832;2.950;2023-02-01T23:00:31;8.30;99.90
23495;DHT22;26107;50.832;2.950;2023-02-01T23:15:32;8.40;99.90
23495;DHT22;26107;50.832;2.950;2023-02-01T23:30:32;8.40;99.90
23495;DHT22;26107;50.832;2.950;2023-02-01T23:45:33;8.40;99.90
